Terminal Aerodrome Forecast
Issued by NWS Spokane, WA

Home | Current Version | Previous Version | Text Only | Print | Product List | Glossary On
Versions: 1 2 3 4 5 6 7 8 9 10 11 12 13 14 15 16
000
FTUS46 KOTX 271423 AAB
TAFGEG
TAF AMD
KGEG 271423Z 2714/2812 21012KT P6SM VCSH FEW005 BKN028 BKN120
      TEMPO 2714/2716 SCT028 BKN120
     FM271600 20014KT P6SM SCT060 SCT200
     FM272100 22013G18KT P6SM BKN060
     FM280200 20008KT P6SM SCT060
     FM280700 18007KT P6SM FEW060 SCT150=

USA.gov is the U.S. government's official web portal to all federal, state and local government web resources and services.